Time;durP1;ratioP1;P1;durP2;ratioP2;P2;SDS_P1;SDS_P2;PMS_P1;PMS_P2;Temp;Humidity;BMP_temperature;BMP_pressure;BME280_temperature;BME280_humidity;BME280_pressure;Samples;Min_cycle;Max_cycle;Signal;HPM_P1;HPM_P2
2022/01/23 00:00:33;;;;;;;32.90;16.27;;;4.40;99.90;;;;;;5157465;28;20441;-49
2022/01/23 00:03:08;;;;;;;36.40;18.40;;;4.50;99.90;;;;;;5154786;28;20448;-48
2022/01/23 00:05:42;;;;;;;31.07;15.93;;;4.40;99.90;;;;;;5162924;28;20474;-49
2022/01/23 00:08:17;;;;;;;36.83;17.70;;;4.40;99.90;;;;;;5142439;28;20421;-49
2022/01/23 00:10:50;;;;;;;33.63;18.20;;;4.40;99.90;;;;;;5158124;28;20455;-49
2022/01/23 00:13:34;;;;;;;27.57;16.40;;;4.40;99.90;;;;;;5164088;28;20416;-49
2022/01/23 00:18:54;;;;;;;24.90;14.60;;;4.40;99.90;;;;;;5162430;28;20427;-49
2022/01/23 00:21:24;;;;;;;27.97;17.73;;;4.50;99.90;;;;;;5166494;28;20571;-49
2022/01/23 00:32:14;;;;;;;22.23;13.73;;;4.60;99.90;;;;;;5131634;28;20975;-48
2022/01/23 00:34:45;;;;;;;28.03;14.33;;;4.60;99.90;;;;;;5142654;28;20429;-50
2022/01/23 00:37:15;;;;;;;23.07;14.00;;;4.60;99.90;;;;;;5162154;28;20189;-49
2022/01/23 00:39:46;;;;;;;20.97;13.57;;;4.60;99.90;;;;;;5162778;28;20210;-48
2022/01/23 00:42:17;;;;;;;23.27;13.33;;;4.60;99.90;;;;;;5147528;28;20280;-49
2022/01/23 00:44:53;;;;;;;25.70;14.40;;;4.60;99.90;;;;;;5143798;28;20523;-49
2022/01/23 00:47:24;;;;;;;20.40;13.23;;;4.70;99.90;;;;;;5156038;28;20205;-49
2022/01/23 00:49:54;;;;;;;20.07;12.13;;;4.70;99.90;;;;;;5152345;28;20459;-49
2022/01/23 00:52:25;;;;;;;26.63;12.80;;;4.70;99.90;;;;;;5162382;28;20190;-48
2022/01/23 00:54:55;;;;;;;17.80;11.20;;;4.70;99.90;;;;;;5165101;28;20190;-49
2022/01/23 00:57:26;;;;;;;18.57;11.43;;;4.80;99.90;;;;;;5145547;28;20191;-50
2022/01/23 00:59:57;;;;;;;18.20;10.93;;;4.80;99.90;;;;;;5147035;28;20574;-49
2022/01/23 01:02:28;;;;;;;19.00;12.10;;;4.80;99.90;;;;;;5144241;28;20445;-49
2022/01/23 01:04:59;;;;;;;15.70;11.20;;;4.80;99.90;;;;;;5147576;28;20215;-48
2022/01/23 01:07:29;;;;;;;17.50;11.87;;;4.80;99.90;;;;;;5162030;28;20761;-48
2022/01/23 01:10:06;;;;;;;17.27;11.20;;;4.70;99.90;;;;;;5161163;28;20245;-49
2022/01/23 01:12:45;;;;;;;14.03;11.23;;;4.70;99.90;;;;;;5144162;28;20222;-48
2022/01/23 01:31:47;;;;;;;10.00;8.90;;;4.80;99.90;;;;;;5164479;28;20824;-49
2022/01/23 01:34:31;;;;;;;13.23;9.50;;;4.80;99.90;;;;;;5151303;28;20481;-49
2022/01/23 01:37:02;;;;;;;13.23;9.77;;;4.80;99.90;;;;;;5168897;28;20441;-48
2022/01/23 01:39:32;;;;;;;13.27;9.20;;;4.80;99.90;;;;;;5170237;28;20545;-48
2022/01/23 01:42:03;;;;;;;11.50;8.63;;;4.90;99.90;;;;;;5148576;28;20290;-48
2022/01/23 01:44:34;;;;;;;12.47;8.23;;;4.90;99.90;;;;;;5167876;28;20194;-50
2022/01/23 01:47:07;;;;;;;13.80;8.27;;;4.90;99.90;;;;;;5164952;28;20440;-48
2022/01/23 01:49:37;;;;;;;10.67;8.23;;;4.90;99.90;;;;;;5140486;28;20211;-48
2022/01/23 01:52:08;;;;;;;10.90;8.30;;;4.90;99.90;;;;;;5149535;28;21001;-49
2022/01/23 01:54:39;;;;;;;8.50;6.83;;;4.90;99.90;;;;;;5150388;28;20187;-50
2022/01/23 01:57:11;;;;;;;7.70;6.90;;;5.00;99.90;;;;;;5150618;28;20188;-48
2022/01/23 02:10:51;;;;;;;11.77;7.07;;;4.90;99.90;;;;;;5166749;28;20843;-49
2022/01/23 02:14:13;;;;;;;7.20;5.83;;;4.90;99.90;;;;;;5163169;28;20521;-47
2022/01/23 02:52:41;;;;;;;9.20;6.67;;;5.00;99.90;;;;;;5164670;28;20922;-49
2022/01/23 02:55:14;;;;;;;9.70;7.43;;;5.00;99.90;;;;;;5166256;28;20550;-49
2022/01/23 03:00:18;;;;;;;15.07;6.50;;;5.00;99.90;;;;;;5168280;28;20464;-48
2022/01/23 03:02:50;;;;;;;9.50;7.77;;;5.00;99.90;;;;;;5164971;28;20194;-48
2022/01/23 03:09:07;;;;;;;9.90;8.67;;;5.00;99.90;;;;;;5166425;28;20806;-48
2022/01/23 03:11:06;;;;;;;6.67;6.00;;;5.00;99.90;;;;;;5150219;28;20441;-47
2022/01/23 03:24:31;;;;;;;6.50;5.90;;;5.00;99.90;;;;;;5165883;28;20884;-48
2022/01/23 03:30:03;;;;;;;8.47;6.80;;;4.90;99.90;;;;;;5145166;28;20456;-48
2022/01/23 03:32:41;;;;;;;8.37;6.70;;;4.90;99.90;;;;;;5165340;28;20447;-49
2022/01/23 03:35:14;;;;;;;8.90;7.10;;;4.90;99.90;;;;;;5165561;28;20440;-48
2022/01/23 03:37:45;;;;;;;6.70;6.10;;;4.90;99.90;;;;;;5167500;28;20813;-49
2022/01/23 03:40:17;;;;;;;7.07;6.30;;;4.90;99.90;;;;;;5156419;28;20469;-49
2022/01/23 03:42:55;;;;;;;7.83;6.57;;;5.00;99.90;;;;;;5160604;28;20916;-49
2022/01/23 03:45:56;;;;;;;9.60;6.67;;;5.00;99.90;;;;;;5167355;28;20479;-50
2022/01/23 03:50:56;;;;;;;8.10;5.40;;;4.90;99.90;;;;;;5166759;28;21064;-49
2022/01/23 03:53:27;;;;;;;8.50;6.10;;;4.90;99.90;;;;;;5166813;28;20183;-49
2022/01/23 03:55:58;;;;;;;6.67;6.00;;;4.90;99.90;;;;;;5166262;28;20186;-49
2022/01/23 03:58:28;;;;;;;7.07;6.27;;;4.90;99.90;;;;;;5165110;28;20216;-48
2022/01/23 04:00:59;;;;;;;7.63;6.50;;;4.90;99.90;;;;;;5163620;28;20645;-49
2022/01/23 04:03:31;;;;;;;7.83;6.83;;;4.90;99.90;;;;;;5149009;28;20215;-48
2022/01/23 04:06:02;;;;;;;8.57;7.10;;;4.90;99.90;;;;;;5159014;28;20298;-48
2022/01/23 04:08:32;;;;;;;8.93;7.13;;;4.90;99.90;;;;;;5135406;28;20537;-48
2022/01/23 04:11:06;;;;;;;8.30;5.90;;;4.90;99.90;;;;;;5163105;28;20287;-48
2022/01/23 04:13:45;;;;;;;8.67;6.70;;;4.90;99.90;;;;;;5144897;28;20185;-49
2022/01/23 04:17:00;;;;;;;6.27;5.67;;;4.90;99.90;;;;;;5160931;28;20478;-49
2022/01/23 04:19:19;;;;;;;10.13;6.60;;;4.90;99.90;;;;;;5161555;28;20442;-48
2022/01/23 05:01:41;;;;;;;9.13;6.63;;;4.90;99.90;;;;;;5150103;28;20459;-47
2022/01/23 05:04:18;;;;;;;9.47;5.80;;;4.80;99.90;;;;;;5161073;28;20461;-48
2022/01/23 05:07:06;;;;;;;7.53;6.63;;;4.80;99.90;;;;;;5166395;28;20930;-48
2022/01/23 05:09:37;;;;;;;7.83;6.20;;;4.80;99.90;;;;;;5149046;28;20461;-47
2022/01/23 05:12:10;;;;;;;6.90;6.17;;;4.80;99.90;;;;;;5164094;28;20917;-47
2022/01/23 05:14:45;;;;;;;7.97;6.40;;;4.70;99.90;;;;;;5169156;28;20268;-47
2022/01/23 05:17:16;;;;;;;7.73;6.17;;;4.70;99.90;;;;;;5153040;28;20466;-49
2022/01/23 05:19:46;;;;;;;7.10;6.40;;;4.70;99.90;;;;;;5150176;28;20468;-49
2022/01/23 05:24:56;;;;;;;7.50;5.13;;;4.80;99.90;;;;;;5148253;28;20623;-47
2022/01/23 05:27:28;;;;;;;6.43;5.80;;;4.80;99.90;;;;;;5148621;28;20218;-48
2022/01/23 05:29:59;;;;;;;5.23;4.73;;;4.80;99.90;;;;;;5147144;28;20499;-47
2022/01/23 05:32:38;;;;;;;7.17;6.63;;;4.90;99.90;;;;;;5147973;28;20427;-49
2022/01/23 05:35:12;;;;;;;8.03;6.30;;;4.80;99.90;;;;;;5145188;28;20433;-49
2022/01/23 05:37:45;;;;;;;9.00;6.13;;;4.80;99.90;;;;;;5149456;28;20895;-47
2022/01/23 05:40:18;;;;;;;7.63;5.87;;;4.80;99.90;;;;;;5145270;28;20568;-49
2022/01/23 05:42:49;;;;;;;7.93;6.43;;;4.80;99.90;;;;;;5127973;28;20966;-47
2022/01/23 05:45:19;;;;;;;8.33;6.63;;;4.80;99.90;;;;;;5130837;28;20463;-48
2022/01/23 05:47:50;;;;;;;7.40;6.30;;;4.80;99.90;;;;;;5132363;28;20211;-48
2022/01/23 05:50:20;;;;;;;11.07;7.17;;;4.80;99.90;;;;;;5147133;28;20306;-48
2022/01/23 05:52:51;;;;;;;8.10;6.80;;;4.80;99.90;;;;;;5148000;28;20180;-48
2022/01/23 05:55:22;;;;;;;7.57;6.77;;;4.80;99.90;;;;;;5130327;28;20176;-48
2022/01/23 05:57:52;;;;;;;11.27;6.67;;;4.80;99.90;;;;;;5151978;28;20186;-47
2022/01/23 06:00:23;;;;;;;9.97;7.40;;;4.90;99.90;;;;;;5146857;28;20209;-47
2022/01/23 06:02:53;;;;;;;10.07;7.30;;;4.80;99.90;;;;;;5145901;28;20566;-47
2022/01/23 06:05:24;;;;;;;9.47;7.90;;;4.80;99.90;;;;;;5144197;28;20215;-49
2022/01/23 06:07:55;;;;;;;12.53;9.00;;;4.80;99.90;;;;;;5129389;28;20196;-50
2022/01/23 06:10:27;;;;;;;12.37;8.23;;;4.80;99.90;;;;;;5127808;28;20628;-47
2022/01/23 06:12:58;;;;;;;10.60;8.23;;;4.80;99.90;;;;;;5135037;28;20448;-47
2022/01/23 06:15:28;;;;;;;11.30;8.30;;;4.80;99.90;;;;;;5134608;28;20796;-48
2022/01/23 06:17:59;;;;;;;11.07;8.20;;;4.90;99.90;;;;;;5145560;28;20191;-51
2022/01/23 06:20:29;;;;;;;10.67;8.47;;;4.80;99.90;;;;;;5133712;28;20218;-47
2022/01/23 06:23:00;;;;;;;12.77;8.90;;;4.80;99.90;;;;;;5116320;28;20234;-47
2022/01/23 06:25:36;;;;;;;9.30;8.27;;;4.80;99.90;;;;;;5129894;28;20207;-49
2022/01/23 06:28:07;;;;;;;12.03;8.80;;;4.80;99.90;;;;;;5144498;28;20663;-48
2022/01/23 06:30:38;;;;;;;11.50;8.37;;;4.80;99.90;;;;;;5146235;28;22347;-49
2022/01/23 06:33:09;;;;;;;13.33;8.50;;;4.80;99.90;;;;;;5147475;28;20430;-48
2022/01/23 06:35:40;;;;;;;13.73;8.63;;;4.90;99.90;;;;;;5147168;28;20451;-48
2022/01/23 06:38:10;;;;;;;11.30;8.03;;;4.90;99.90;;;;;;5130558;28;20428;-48
2022/01/23 06:40:41;;;;;;;11.77;8.50;;;4.90;99.90;;;;;;5145224;28;20287;-48
2022/01/23 06:43:12;;;;;;;12.63;8.20;;;4.90;99.90;;;;;;5146318;28;20740;-47
2022/01/23 06:45:42;;;;;;;13.83;8.67;;;4.90;99.90;;;;;;5130538;28;20205;-47
2022/01/23 06:48:13;;;;;;;11.07;8.20;;;4.90;99.90;;;;;;5115461;28;20182;-49
2022/01/23 06:50:43;;;;;;;13.23;9.17;;;4.90;99.90;;;;;;5143365;28;20235;-47
2022/01/23 06:53:14;;;;;;;13.70;9.87;;;4.90;99.90;;;;;;5129661;28;20322;-48
2022/01/23 06:55:47;;;;;;;14.60;9.80;;;4.80;99.90;;;;;;5132023;28;20282;-46
2022/01/23 06:58:18;;;;;;;11.83;9.40;;;4.80;99.90;;;;;;5119141;28;20504;-52
2022/01/23 07:00:48;;;;;;;17.30;10.50;;;4.90;99.90;;;;;;5127054;28;20464;-48
2022/01/23 07:03:19;;;;;;;15.77;10.13;;;4.80;99.90;;;;;;5129247;28;20181;-49
2022/01/23 07:05:49;;;;;;;13.50;9.87;;;4.90;99.90;;;;;;5148070;28;20218;-47
2022/01/23 07:08:20;;;;;;;13.80;9.53;;;4.90;99.90;;;;;;5141866;28;20243;-48
2022/01/23 07:10:50;;;;;;;13.90;10.40;;;4.90;99.90;;;;;;5142173;28;20205;-47
2022/01/23 07:13:23;;;;;;;11.67;9.50;;;4.90;99.90;;;;;;5124430;28;20597;-49
2022/01/23 07:15:54;;;;;;;13.33;9.53;;;4.90;99.90;;;;;;5129895;28;20288;-48
2022/01/23 07:18:24;;;;;;;11.90;9.03;;;4.90;99.90;;;;;;5122931;28;21039;-47
2022/01/23 07:20:55;;;;;;;11.50;9.20;;;4.90;99.90;;;;;;5145842;28;20234;-47
2022/01/23 07:23:25;;;;;;;11.87;9.07;;;5.00;99.90;;;;;;5171243;28;20260;-48
2022/01/23 07:25:58;;;;;;;15.80;9.50;;;5.00;99.90;;;;;;5171133;28;20737;-48
2022/01/23 07:28:38;;;;;;;12.03;9.03;;;4.90;99.90;;;;;;5164540;28;20206;-48
2022/01/23 07:31:10;;;;;;;13.53;9.33;;;5.00;99.90;;;;;;5147999;28;20452;-48
2022/01/23 07:33:41;;;;;;;10.77;8.27;;;4.90;99.90;;;;;;5166406;28;20512;-47
2022/01/23 07:36:11;;;;;;;10.60;8.20;;;4.90;99.90;;;;;;5160785;28;20837;-48
2022/01/23 07:38:42;;;;;;;12.50;7.97;;;4.90;99.90;;;;;;5151940;28;20544;-47
2022/01/23 07:41:12;;;;;;;12.90;9.60;;;4.90;99.90;;;;;;5166269;28;20281;-48
2022/01/23 07:43:43;;;;;;;10.37;8.80;;;4.90;99.90;;;;;;5165067;28;20327;-47
2022/01/23 07:46:13;;;;;;;12.97;9.60;;;5.00;99.90;;;;;;5165966;28;20273;-48
2022/01/23 07:48:44;;;;;;;17.43;9.53;;;5.00;99.90;;;;;;5166288;28;20174;-48
2022/01/23 07:51:14;;;;;;;13.43;8.90;;;5.00;99.90;;;;;;5148936;28;20552;-48
2022/01/23 07:53:48;;;;;;;12.40;9.03;;;4.90;99.90;;;;;;5130781;28;20184;-48
2022/01/23 07:56:19;;;;;;;13.77;9.07;;;5.00;99.90;;;;;;5148191;28;20276;-48
2022/01/23 07:58:49;;;;;;;12.33;8.37;;;5.00;99.90;;;;;;5166118;28;20544;-47
2022/01/23 08:01:20;;;;;;;7.83;7.03;;;5.10;99.90;;;;;;5163053;28;20237;-48
2022/01/23 08:03:50;;;;;;;11.77;8.20;;;5.10;99.90;;;;;;5160877;28;20667;-47
2022/01/23 08:06:23;;;;;;;13.23;8.83;;;5.10;99.90;;;;;;5162780;28;20213;-48
2022/01/23 08:08:55;;;;;;;7.63;6.83;;;5.20;99.90;;;;;;5161363;28;20195;-48
2022/01/23 08:11:26;;;;;;;11.33;8.10;;;5.30;99.90;;;;;;5154857;28;20458;-47
2022/01/23 08:13:56;;;;;;;7.70;6.90;;;5.30;99.90;;;;;;5146709;28;20710;-48
2022/01/23 08:16:30;;;;;;;7.97;6.97;;;5.40;99.90;;;;;;5157752;28;20184;-48
2022/01/23 08:19:00;;;;;;;8.17;7.07;;;5.50;99.90;;;;;;5165624;28;20567;-48
2022/01/23 08:21:31;;;;;;;9.63;8.00;;;5.50;99.90;;;;;;5165668;28;20445;-47
2022/01/23 08:24:01;;;;;;;8.33;6.57;;;5.60;99.90;;;;;;5155759;28;20183;-48
2022/01/23 08:26:32;;;;;;;11.43;7.20;;;5.60;99.90;;;;;;5145206;28;20210;-48
2022/01/23 08:29:03;;;;;;;7.67;6.87;;;5.60;99.90;;;;;;5162760;28;20232;-49
2022/01/23 08:31:34;;;;;;;6.77;6.13;;;5.60;99.90;;;;;;5162444;28;22171;-50
2022/01/23 08:34:04;;;;;;;6.60;5.90;;;5.80;99.90;;;;;;5154946;28;20438;-48
2022/01/23 08:36:36;;;;;;;8.50;6.40;;;5.80;99.90;;;;;;5145773;28;20258;-49
2022/01/23 08:39:07;;;;;;;16.83;6.03;;;5.80;99.90;;;;;;5157562;28;20286;-52
2022/01/23 08:41:49;;;;;;;9.37;6.30;;;5.80;99.90;;;;;;5143052;28;20520;-48
2022/01/23 08:44:23;;;;;;;7.10;6.37;;;5.70;99.90;;;;;;5154579;28;21305;-48
2022/01/23 08:46:53;;;;;;;6.93;6.33;;;5.70;99.90;;;;;;5136920;28;20441;-48
2022/01/23 08:49:25;;;;;;;7.13;5.80;;;5.70;99.90;;;;;;5157297;28;20461;-48
2022/01/23 08:51:57;;;;;;;7.47;5.80;;;5.70;99.90;;;;;;5158836;28;20437;-47
2022/01/23 08:54:28;;;;;;;10.80;6.63;;;5.60;99.90;;;;;;5162804;28;20452;-49
2022/01/23 08:56:59;;;;;;;10.63;7.20;;;5.60;99.90;;;;;;5164392;28;20524;-48
2022/01/23 08:59:29;;;;;;;8.07;5.80;;;5.70;99.90;;;;;;5166181;28;20460;-48
2022/01/23 09:02:00;;;;;;;7.50;5.67;;;5.70;99.90;;;;;;5159774;28;20186;-50
2022/01/23 09:04:30;;;;;;;6.40;5.80;;;5.80;99.90;;;;;;5157455;28;20238;-48
2022/01/23 09:07:03;;;;;;;6.23;5.63;;;5.80;99.90;;;;;;5143953;28;20184;-48
2022/01/23 09:09:37;;;;;;;8.30;5.00;;;5.80;99.90;;;;;;5153804;28;20196;-49
2022/01/23 09:14:59;;;;;;;6.20;5.70;;;5.90;99.90;;;;;;5155752;28;20470;-48
2022/01/23 09:17:29;;;;;;;7.07;6.30;;;6.00;99.90;;;;;;5140728;28;20458;-49
2022/01/23 09:20:00;;;;;;;6.67;5.40;;;6.10;99.90;;;;;;5162337;28;20234;-51
2022/01/23 09:22:31;;;;;;;8.30;5.73;;;6.10;99.90;;;;;;5137124;28;20310;-47
2022/01/23 09:25:02;;;;;;;5.20;4.27;;;6.20;99.90;;;;;;5133974;28;20487;-51
2022/01/23 09:27:33;;;;;;;6.93;5.80;;;6.30;99.90;;;;;;5157641;28;20189;-49
2022/01/23 09:30:16;;;;;;;6.50;5.90;;;6.30;99.90;;;;;;5156982;28;20707;-50
2022/01/23 09:32:50;;;;;;;7.23;5.67;;;6.30;99.90;;;;;;5159994;28;20569;-51
2022/01/23 09:35:21;;;;;;;5.33;4.80;;;6.50;99.90;;;;;;5161987;28;20954;-48
2022/01/23 09:37:51;;;;;;;5.93;4.80;;;6.60;99.90;;;;;;5157216;28;20458;-48
2022/01/23 09:40:22;;;;;;;7.47;6.70;;;6.60;99.90;;;;;;5148014;28;20200;-49
2022/01/23 09:43:01;;;;;;;5.93;5.20;;;6.50;99.90;;;;;;5144373;28;20197;-51
2022/01/23 09:45:31;;;;;;;7.20;5.80;;;6.50;99.90;;;;;;5162025;28;20208;-49
2022/01/23 09:48:03;;;;;;;6.57;5.10;;;6.70;99.90;;;;;;5132315;28;20442;-49
2022/01/23 09:50:35;;;;;;;18.43;5.90;;;6.60;99.90;;;;;;5148385;28;20235;-48
2022/01/23 09:53:06;;;;;;;5.93;5.50;;;6.70;99.90;;;;;;5147455;28;21257;-48
2022/01/23 09:55:39;;;;;;;4.93;4.53;;;6.70;99.90;;;;;;5154302;28;20515;-48
2022/01/23 09:58:12;;;;;;;14.57;6.00;;;6.90;99.90;;;;;;5154795;28;20443;-49
2022/01/23 10:00:42;;;;;;;5.23;4.77;;;7.00;99.90;;;;;;5158119;28;20451;-49
2022/01/23 10:03:15;;;;;;;5.90;5.30;;;7.20;99.90;;;;;;5148836;28;20459;-48
2022/01/23 10:05:51;;;;;;;5.87;5.30;;;7.30;99.90;;;;;;5140559;28;20263;-50
2022/01/23 10:08:24;;;;;;;4.63;4.10;;;7.30;99.90;;;;;;5135588;28;20486;-51
2022/01/23 10:10:56;;;;;;;4.27;3.97;;;7.40;99.90;;;;;;5159104;28;20502;-49
2022/01/23 10:13:27;;;;;;;5.70;4.10;;;7.30;99.90;;;;;;5165521;28;20438;-52
2022/01/23 10:15:58;;;;;;;5.00;4.50;;;7.30;99.90;;;;;;5146224;28;20436;-48
2022/01/23 10:18:29;;;;;;;5.70;4.47;;;7.20;99.90;;;;;;5164321;28;20185;-48
2022/01/23 10:21:00;;;;;;;7.43;4.47;;;7.20;99.90;;;;;;5148737;28;20304;-48
2022/01/23 10:23:31;;;;;;;5.13;4.77;;;7.20;99.90;;;;;;5158728;28;20190;-47
2022/01/23 10:26:04;;;;;;;4.40;4.10;;;7.20;99.90;;;;;;5162864;28;20821;-49
2022/01/23 10:28:35;;;;;;;4.97;4.47;;;7.30;99.90;;;;;;5165744;28;20514;-49
2022/01/23 10:31:06;;;;;;;6.73;4.47;;;7.40;99.90;;;;;;5160251;28;20846;-52
2022/01/23 10:33:38;;;;;;;4.07;3.83;;;7.40;99.90;;;;;;5161867;28;20436;-49
2022/01/23 10:36:17;;;;;;;6.23;4.50;;;7.40;99.90;;;;;;5161477;28;20181;-48
2022/01/23 10:38:51;;;;;;;4.20;3.90;;;7.30;99.90;;;;;;5136809;28;20462;-50
2022/01/23 10:50:04;;;;;;;14.93;8.60;;;7.60;99.90;;;;;;5159437;28;20456;-49
2022/01/23 10:52:45;;;;;;;5.80;5.33;;;7.60;99.90;;;;;;5165838;28;20428;-49
2022/01/23 10:55:27;;;;;;;8.50;6.20;;;7.60;99.90;;;;;;5160305;28;20508;-49
2022/01/23 10:58:01;;;;;;;6.33;4.23;;;7.70;99.90;;;;;;5159551;28;21075;-50
2022/01/23 11:00:37;;;;;;;5.73;5.03;;;7.80;99.90;;;;;;5138101;28;20461;-48
2022/01/23 11:03:22;;;;;;;4.63;4.23;;;7.80;99.90;;;;;;5153591;28;20439;-49
2022/01/23 11:05:53;;;;;;;5.40;4.73;;;7.80;99.90;;;;;;5164796;28;20456;-51
2022/01/23 11:08:26;;;;;;;6.00;4.50;;;7.70;99.90;;;;;;5159396;28;20765;-49
2022/01/23 11:11:06;;;;;;;6.17;4.73;;;7.60;99.90;;;;;;5142031;28;20201;-49
2022/01/23 11:19:39;;;;;;;4.20;3.93;;;7.50;99.90;;;;;;5162354;28;20538;-49
2022/01/23 11:22:22;;;;;;;6.27;4.77;;;7.60;99.90;;;;;;5153839;28;20570;-50
2022/01/23 11:25:01;;;;;;;3.73;3.53;;;7.80;99.90;;;;;;5140841;28;20475;-50
2022/01/23 11:27:37;;;;;;;3.40;3.10;;;7.80;99.90;;;;;;5157871;28;20432;-50
2022/01/23 11:30:11;;;;;;;5.13;3.00;;;7.90;99.90;;;;;;5156653;28;20515;-50
2022/01/23 11:32:42;;;;;;;3.77;3.40;;;8.00;99.90;;;;;;5138228;28;20453;-48
2022/01/23 11:35:16;;;;;;;4.50;4.10;;;8.20;99.90;;;;;;5163724;28;20482;-49
2022/01/23 11:37:49;;;;;;;3.00;2.90;;;8.30;99.90;;;;;;5143067;28;20857;-54
2022/01/23 11:54:45;;;;;;;10.53;7.30;;;8.10;99.90;;;;;;5158974;28;20423;-52
2022/01/23 11:57:38;;;;;;;11.53;6.50;;;8.10;99.90;;;;;;5164767;28;20850;-49
2022/01/23 12:00:10;;;;;;;5.23;4.83;;;8.20;99.90;;;;;;5141045;28;20467;-51
2022/01/23 12:02:43;;;;;;;4.77;4.30;;;8.30;99.90;;;;;;5155753;28;20881;-48
2022/01/23 12:05:15;;;;;;;4.60;4.20;;;8.30;99.90;;;;;;5142772;28;20569;-49
2022/01/23 12:08:18;;;;;;;22.03;9.10;;;8.30;99.90;;;;;;5156715;28;20447;-49
2022/01/23 12:12:21;;;;;;;3.73;3.50;;;8.10;99.90;;;;;;5141742;28;20459;-48
2022/01/23 12:16:54;;;;;;;5.30;4.17;;;7.80;99.90;;;;;;5163293;28;20900;-49
2022/01/23 12:19:27;;;;;;;4.00;3.60;;;7.80;99.90;;;;;;5158868;28;20558;-53
2022/01/23 12:22:27;;;;;;;4.20;3.70;;;7.70;99.90;;;;;;5163160;28;20448;-48
2022/01/23 12:25:12;;;;;;;4.30;4.00;;;7.60;99.90;;;;;;5152458;28;20830;-49
2022/01/23 12:27:43;;;;;;;6.60;5.07;;;7.60;99.90;;;;;;5135431;28;20894;-49
2022/01/23 12:30:23;;;;;;;5.70;4.33;;;7.60;99.90;;;;;;5143779;28;20464;-50
2022/01/23 12:33:30;;;;;;;4.57;4.17;;;7.80;99.90;;;;;;5143115;28;20527;-49
2022/01/23 12:36:25;;;;;;;4.20;3.80;;;8.00;99.90;;;;;;5145301;28;20521;-50
2022/01/23 12:39:17;;;;;;;4.20;3.80;;;8.10;99.90;;;;;;5153865;28;20443;-51
2022/01/23 12:41:47;;;;;;;2.93;2.57;;;8.10;99.90;;;;;;5157685;28;20527;-49
2022/01/23 12:44:24;;;;;;;2.60;2.50;;;8.10;99.90;;;;;;5158705;28;20511;-51
2022/01/23 12:46:57;;;;;;;5.33;4.00;;;8.00;99.90;;;;;;5161725;28;20693;-50
2022/01/23 12:49:33;;;;;;;3.60;3.30;;;7.80;99.90;;;;;;5153578;28;20452;-49
2022/01/23 12:52:07;;;;;;;3.17;2.50;;;7.70;99.90;;;;;;5155398;28;20442;-52
2022/01/23 12:54:47;;;;;;;2.60;2.50;;;7.60;99.90;;;;;;5157962;28;20452;-51
2022/01/23 12:57:30;;;;;;;2.80;2.60;;;7.50;99.90;;;;;;5164157;28;20432;-53
2022/01/23 13:00:09;;;;;;;2.90;2.70;;;7.50;99.90;;;;;;5161002;28;20453;-50
2022/01/23 13:02:51;;;;;;;12.93;7.20;;;7.60;99.90;;;;;;5159897;28;20442;-48
2022/01/23 13:05:22;;;;;;;7.10;4.40;;;7.60;99.90;;;;;;5155492;28;21036;-49
2022/01/23 13:08:11;;;;;;;3.50;3.20;;;7.60;99.90;;;;;;5157592;28;20527;-49
2022/01/23 13:13:34;;;;;;;2.67;2.47;;;7.60;99.90;;;;;;5159923;28;20438;-48
2022/01/23 13:27:28;;;;;;;5.67;3.50;;;7.50;99.90;;;;;;5148411;28;20529;-50
2022/01/23 13:29:58;;;;;;;3.03;2.73;;;7.50;99.90;;;;;;5162782;28;20462;-49
2022/01/23 13:35:07;;;;;;;3.50;3.30;;;7.40;99.90;;;;;;5168949;28;20427;-51
2022/01/23 13:37:41;;;;;;;7.20;4.43;;;7.40;99.90;;;;;;5169342;28;20451;-47
2022/01/23 13:40:24;;;;;;;6.33;2.80;;;7.40;99.90;;;;;;5153834;28;20879;-51
2022/01/23 13:57:32;;;;;;;2.77;2.57;;;7.50;99.90;;;;;;5165768;28;20746;-49
2022/01/23 14:00:13;;;;;;;7.17;2.70;;;7.40;99.90;;;;;;5170961;28;20847;-49
2022/01/23 14:02:45;;;;;;;2.30;2.20;;;7.40;99.90;;;;;;5169479;28;20442;-49
2022/01/23 14:05:26;;;;;;;2.70;2.60;;;7.40;99.90;;;;;;5165966;28;20547;-50
2022/01/23 14:07:59;;;;;;;2.60;2.40;;;7.40;99.90;;;;;;5162208;28;20429;-51
2022/01/23 14:10:37;;;;;;;3.87;2.27;;;7.30;99.90;;;;;;5168792;28;20459;-49
2022/01/23 14:13:14;;;;;;;2.50;2.43;;;7.30;99.90;;;;;;5169995;28;20520;-51
2022/01/23 14:15:50;;;;;;;3.80;3.50;;;7.30;99.90;;;;;;5167378;28;20931;-48
2022/01/23 14:18:26;;;;;;;3.03;2.80;;;7.30;99.90;;;;;;5158990;28;20749;-50
2022/01/23 14:21:04;;;;;;;1.87;1.77;;;7.20;99.90;;;;;;5163007;28;20991;-49
2022/01/23 14:23:34;;;;;;;3.07;2.20;;;7.20;99.90;;;;;;5164259;28;20814;-50
2022/01/23 14:26:12;;;;;;;1.70;1.53;;;7.20;99.90;;;;;;5164322;28;20464;-49
2022/01/23 14:28:50;;;;;;;1.90;1.80;;;7.20;99.90;;;;;;5143857;28;20181;-49
2022/01/23 14:31:25;;;;;;;6.73;2.43;;;7.20;99.90;;;;;;5151705;28;20467;-48
2022/01/23 14:33:59;;;;;;;1.70;1.60;;;7.20;99.90;;;;;;5124727;28;20448;-49
2022/01/23 14:36:33;;;;;;;8.00;4.87;;;7.20;99.90;;;;;;5160139;28;20945;-49
2022/01/23 14:39:08;;;;;;;4.47;4.03;;;7.20;99.90;;;;;;5159571;28;20443;-49
2022/01/23 14:41:44;;;;;;;4.17;1.83;;;7.20;99.90;;;;;;5144596;28;20447;-50
2022/01/23 14:44:26;;;;;;;2.10;2.00;;;7.10;99.90;;;;;;5158675;28;20443;-50
2022/01/23 14:46:58;;;;;;;2.93;2.70;;;7.00;99.90;;;;;;5162286;28;20492;-49
2022/01/23 14:49:30;;;;;;;3.50;3.17;;;7.00;99.90;;;;;;5145122;28;20602;-50
2022/01/23 14:52:02;;;;;;;3.23;3.00;;;7.00;99.90;;;;;;5163567;28;20444;-51
2022/01/23 14:54:33;;;;;;;8.70;5.90;;;7.00;99.90;;;;;;5144571;28;20479;-49
2022/01/23 14:57:07;;;;;;;2.63;2.43;;;7.00;99.90;;;;;;5167171;28;20482;-49
2022/01/23 14:59:37;;;;;;;5.50;3.50;;;7.00;99.90;;;;;;5154995;28;20463;-51
2022/01/23 15:02:10;;;;;;;4.93;3.37;;;6.90;99.90;;;;;;5157916;28;20506;-52
2022/01/23 15:04:45;;;;;;;1.73;1.67;;;7.00;99.90;;;;;;5168644;28;20199;-50
2022/01/23 15:07:18;;;;;;;2.00;1.90;;;6.90;99.90;;;;;;5161414;28;20436;-49
2022/01/23 15:09:50;;;;;;;1.90;1.80;;;6.90;99.90;;;;;;5149412;28;20453;-49
2022/01/23 15:12:21;;;;;;;1.67;1.63;;;6.80;99.90;;;;;;5155134;28;20523;-50
2022/01/23 15:14:52;;;;;;;4.10;3.00;;;6.90;99.90;;;;;;5163470;28;20441;-49
2022/01/23 15:17:24;;;;;;;12.97;5.10;;;6.80;99.90;;;;;;5137271;28;20673;-50
2022/01/23 15:19:55;;;;;;;3.03;2.60;;;6.80;99.90;;;;;;5141154;28;20479;-50
2022/01/23 15:22:27;;;;;;;2.87;2.47;;;6.80;99.90;;;;;;5145677;28;20779;-50
2022/01/23 15:24:58;;;;;;;1.23;1.23;;;6.80;99.90;;;;;;5163622;28;20729;-49
2022/01/23 15:27:29;;;;;;;1.53;1.43;;;6.80;99.90;;;;;;5153361;28;20468;-50
2022/01/23 15:30:00;;;;;;;1.70;1.60;;;6.70;99.90;;;;;;5165528;28;20964;-49
2022/01/23 15:32:30;;;;;;;1.70;1.60;;;6.70;99.90;;;;;;5136843;28;20189;-49
2022/01/23 15:35:02;;;;;;;3.50;2.30;;;6.70;99.90;;;;;;5166636;28;20193;-50
2022/01/23 15:37:33;;;;;;;1.60;1.50;;;6.70;99.90;;;;;;5145690;28;20669;-51
2022/01/23 15:40:05;;;;;;;1.53;1.30;;;6.60;99.90;;;;;;5161422;28;20452;-48
2022/01/23 15:42:38;;;;;;;2.50;2.00;;;6.60;99.90;;;;;;5152944;28;20684;-49
2022/01/23 15:45:10;;;;;;;2.50;2.07;;;6.60;99.90;;;;;;5140136;28;21111;-55
2022/01/23 15:47:41;;;;;;;2.00;1.90;;;6.70;99.90;;;;;;5142435;28;20840;-49
2022/01/23 15:50:14;;;;;;;2.57;1.00;;;6.60;99.90;;;;;;5164526;28;20479;-50
2022/01/23 15:52:45;;;;;;;2.00;1.90;;;6.60;99.90;;;;;;5146602;28;20568;-49
2022/01/23 15:55:19;;;;;;;2.07;1.97;;;6.50;99.90;;;;;;5157692;28;20974;-49
2022/01/23 15:57:50;;;;;;;1.77;1.70;;;6.50;99.90;;;;;;5160396;28;20862;-48
2022/01/23 16:00:21;;;;;;;3.10;2.80;;;6.50;99.90;;;;;;5144612;28;20526;-49
2022/01/23 16:02:52;;;;;;;1.30;1.30;;;6.40;99.90;;;;;;5154001;28;20436;-48
2022/01/23 16:05:22;;;;;;;1.73;1.73;;;6.50;99.90;;;;;;5163033;28;20497;-50
2022/01/23 16:07:53;;;;;;;1.87;1.73;;;6.40;99.90;;;;;;5161795;28;20187;-48
2022/01/23 16:10:24;;;;;;;6.80;2.53;;;6.40;99.90;;;;;;5140653;28;20207;-48
2022/01/23 16:12:55;;;;;;;1.50;1.50;;;6.40;99.90;;;;;;5159878;28;22094;-49
2022/01/23 16:15:26;;;;;;;2.00;1.90;;;6.40;99.90;;;;;;5145149;28;20185;-50
2022/01/23 16:17:57;;;;;;;1.97;1.87;;;6.30;99.90;;;;;;5160629;28;20180;-51
2022/01/23 16:20:29;;;;;;;3.20;2.47;;;6.30;99.90;;;;;;5143422;28;20468;-49
2022/01/23 16:22:59;;;;;;;4.37;3.80;;;6.30;99.90;;;;;;5155541;28;20441;-51
2022/01/23 16:25:30;;;;;;;2.30;1.60;;;6.40;99.90;;;;;;5153891;28;20555;-48
2022/01/23 16:28:01;;;;;;;1.70;1.70;;;6.40;99.90;;;;;;5162307;28;20183;-48
2022/01/23 16:30:46;;;;;;;0.93;0.93;;;6.30;99.90;;;;;;5156586;28;20335;-47
2022/01/23 16:33:19;;;;;;;5.10;2.10;;;6.30;99.90;;;;;;5157232;28;20431;-48
2022/01/23 16:35:49;;;;;;;2.10;1.90;;;6.30;99.90;;;;;;5161829;28;20434;-48
2022/01/23 16:38:21;;;;;;;2.87;2.67;;;6.30;99.90;;;;;;5147843;28;20864;-48
2022/01/23 16:40:54;;;;;;;2.30;1.80;;;6.30;99.90;;;;;;5167391;28;20204;-47
2022/01/23 16:43:27;;;;;;;4.07;1.80;;;6.30;99.90;;;;;;5158437;28;20451;-46
2022/01/23 16:46:00;;;;;;;3.60;3.40;;;6.30;99.90;;;;;;5155351;28;20979;-49
2022/01/23 16:48:30;;;;;;;2.70;2.50;;;6.30;99.90;;;;;;5166691;28;20431;-49
2022/01/23 16:51:03;;;;;;;2.53;2.43;;;6.20;99.90;;;;;;5141928;28;20466;-48